Terminal Aerodrome Forecast
Issued by NWS

Home | Current Version | Previous Version | Text Only | Print | Product List | Glossary On
Versions: 1 2 3 4 5 6 7 8 9 10 11 12
000
FTUS44 KTSA 301129
TAFFYV
TAF
KFYV 301129Z 3012/3112 00000KT P6SM FEW002 BKN100
     FM301400 17008KT P6SM VCSH SCT040 BKN250
      TEMPO 3016/3020 5SM -TSRA OVC030CB
     FM310200 17003KT P6SM BKN250=

USA.gov is the U.S. government's official web portal to all federal, state and local government web resources and services.